Aérodrome :
LOGIN :

S'inscrire | Disclaimer

   EN    FR    IT 

 










Légende :    VFR   VFR Marginal   IFR   IFR Intensif   IFR Très Intensif
Visi : 
Plafond : 
>= 8 km
>= 3000ft
5 à 8 km
1000 à 3000 ft
1500m à 5 km
500 à 1000 ft
800 à 1500m
200 à 500 ft
< 800m
< 200 ft
Symboles :   Orages  Brouillard  Fortes neiges  Fortes précipitations  Vent > 20 kt
SIGMETs :   Divers  Orages  Givrage  Turbulence  Onde Orograph.  Cendres Volcan.







- Altitude de l'aérodrome : 80 ft
- Code IATA : LPL
- Voir les cartes d'approche


EGGP - Liverpool John Lennon

DERNIER METAR :
  • 230420Z 31006KT 9999 FEW042 07/03 Q1030

METARs EXPIRÉS :
  • 230350Z VRB03KT 9999 FEW042 07/04 Q1030
  • 230320Z VRB01KT 9999 FEW042 07/03 Q1030
  • 230250Z VRB02KT 9999 FEW042 08/03 Q1030
  • 230220Z 31004KT 290V350 9999 FEW042 08/03 Q1029
  • 230150Z 32005KT 9999 FEW042 08/04 Q1029

TAF TAF EGGP
Valide du 23 à 00h jusqu'au 24 à 00h UTC


222257Z 2300/2324 32008KT 9999 FEW045
ATIS : +44 151 907 2000 (option 5 or ext 5150)
Météo : +44 871 750 5150
Pas de NOTAMs connus pour ce terrain.



MET'MAP, la Météo Aéronautique d'un coup d'oeil ! - Copyright ORBIFLY Décembre 2007 - Disclaimer

ORBIFLY MET'MAP TEAM :

Programmation & Développement : Alexandra Zaïnal
Conception & Développement : Baudouin d'Aumeries
Co-Programmation & Développement : Marc-Olivier Méhu
Soutien technique & logistique : Manuel Goepfert

Contact : metmap@orbifly.com




SOURCES & CREDITS :

   NOAA